createdAt,value
2023-03-08T00:01:24.686Z,84.93
2023-03-08T00:03:54.010Z,85.11
2023-03-08T00:06:22.063Z,84.97
2023-03-08T00:09:20.812Z,85.69
2023-03-08T00:11:47.790Z,85.98
2023-03-08T00:14:16.570Z,85.92
2023-03-08T00:16:43.741Z,85.61
2023-03-08T00:19:18.704Z,85.45
2023-03-08T00:21:45.819Z,85.54
2023-03-08T00:24:19.735Z,85.25
2023-03-08T00:27:13.102Z,84.61
2023-03-08T00:29:47.781Z,84.75
2023-03-08T00:32:16.991Z,85.09
2023-03-08T00:34:46.893Z,84.81
2023-03-08T00:37:14.330Z,84.77
2023-03-08T00:39:41.876Z,84.59
2023-03-08T00:42:09.771Z,84.58
2023-03-08T00:44:37.752Z,84.25
2023-03-08T00:47:05.804Z,84.26
2023-03-08T00:49:37.872Z,84.29
2023-03-08T00:52:06.140Z,84.02
2023-03-08T00:54:33.873Z,83.85
2023-03-08T00:57:03.291Z,83.68
2023-03-08T00:59:31.811Z,83.53
2023-03-08T01:02:23.764Z,83.21
2023-03-08T01:04:57.844Z,83.71
2023-03-08T01:07:28.453Z,83.46
2023-03-08T01:09:56.287Z,83.39
2023-03-08T01:12:25.283Z,83.46
2023-03-08T01:14:53.918Z,83.22
2023-03-08T01:17:21.813Z,83.03
2023-03-08T01:22:41.756Z,83.05
2023-03-08T01:25:09.953Z,83.31
2023-03-08T01:27:37.810Z,83.11
2023-03-08T01:30:11.853Z,83.00
2023-03-08T01:32:41.790Z,82.83
2023-03-08T01:35:10.287Z,82.82
2023-03-08T01:38:01.738Z,82.69
2023-03-08T01:43:52.864Z,82.46
2023-03-08T01:46:31.178Z,82.58
2023-03-08T01:49:30.333Z,82.58
2023-03-08T01:52:18.912Z,82.57
2023-03-08T01:54:59.808Z,82.77
2023-03-08T01:57:55.288Z,83.05
2023-03-08T02:00:26.852Z,83.14
2023-03-08T02:03:20.211Z,83.51
2023-03-08T02:05:49.213Z,83.59
2023-03-08T02:08:26.848Z,83.40
2023-03-08T02:10:54.207Z,83.02
2023-03-08T02:13:21.836Z,83.05
2023-03-08T02:15:50.987Z,83.10
2023-03-08T02:18:21.958Z,83.10
2023-03-08T02:20:49.853Z,83.28
2023-03-08T02:23:23.950Z,83.39
2023-03-08T02:28:51.769Z,83.11
2023-03-08T02:31:21.764Z,83.25
2023-03-08T02:33:49.923Z,83.75
2023-03-08T02:36:41.768Z,83.80
2023-03-08T02:39:09.797Z,85.22
2023-03-08T02:41:37.905Z,85.39
2023-03-08T02:44:05.855Z,85.26
2023-03-08T02:46:37.940Z,84.72
2023-03-08T02:49:05.780Z,86.22
2023-03-08T02:51:33.738Z,85.83
2023-03-08T02:54:01.758Z,86.41
2023-03-08T02:56:29.893Z,87.12
2023-03-08T02:58:57.906Z,87.63
2023-03-08T03:01:25.791Z,87.75
2023-03-08T03:03:55.182Z,88.13
2023-03-08T03:06:23.921Z,87.98
2023-03-08T03:08:53.794Z,88.69
2023-03-08T03:11:23.313Z,89.05
2023-03-08T03:13:58.834Z,88.60
2023-03-08T03:19:23.803Z,88.91
2023-03-08T03:21:51.795Z,88.28
2023-03-08T03:24:24.839Z,88.71
2023-03-08T03:26:55.858Z,88.55
2023-03-08T03:29:25.832Z,88.57
2023-03-08T03:32:01.778Z,88.01
2023-03-08T03:34:29.947Z,87.38
2023-03-08T03:36:57.798Z,86.96
2023-03-08T03:39:34.755Z,86.87
2023-03-08T03:42:03.923Z,87.80
2023-03-08T03:44:36.846Z,87.82
2023-03-08T03:47:18.810Z,87.14
2023-03-08T03:49:47.830Z,86.70
2023-03-08T03:52:21.786Z,86.11
2023-03-08T03:54:59.964Z,86.20
2023-03-08T03:57:32.886Z,86.55
2023-03-08T04:00:01.774Z,86.39
2023-03-08T04:08:14.787Z,87.48
2023-03-08T04:10:43.930Z,87.37
2023-03-08T04:13:12.388Z,86.56
2023-03-08T04:15:41.863Z,87.06
2023-03-08T04:18:35.846Z,86.84
2023-03-08T04:21:10.554Z,87.38
2023-03-08T04:23:43.597Z,87.14
2023-03-08T04:26:13.319Z,86.37
2023-03-08T04:28:42.186Z,86.24
2023-03-08T04:31:19.854Z,86.69
2023-03-08T04:36:47.798Z,87.28
2023-03-08T04:39:15.762Z,86.76
2023-03-08T04:41:43.807Z,87.31
2023-03-08T04:44:28.231Z,86.91
2023-03-08T04:46:56.078Z,86.79
2023-03-08T04:49:41.772Z,86.75
2023-03-08T04:52:09.793Z,87.06
2023-03-08T04:54:39.781Z,86.94
2023-03-08T04:57:21.749Z,86.82
2023-03-08T04:59:57.809Z,86.73
2023-03-08T05:02:25.935Z,86.49
2023-03-08T05:04:53.790Z,87.39
2023-03-08T05:07:26.792Z,87.55
2023-03-08T05:09:55.728Z,87.21
2023-03-08T05:12:25.792Z,87.13
2023-03-08T05:14:57.814Z,86.53
2023-03-08T05:17:27.808Z,86.81
2023-03-08T05:20:01.739Z,86.77
2023-03-08T05:22:51.324Z,86.45
2023-03-08T05:25:41.679Z,86.33
2023-03-08T05:28:16.055Z,87.17
2023-03-08T05:30:48.031Z,86.60
2023-03-08T05:33:22.493Z,86.36
2023-03-08T05:35:54.520Z,86.86
2023-03-08T05:38:24.584Z,86.53
2023-03-08T05:40:52.163Z,86.66
2023-03-08T05:43:22.215Z,86.77
2023-03-08T05:46:17.933Z,87.13
2023-03-08T05:48:46.083Z,86.57
2023-03-08T05:54:09.988Z,86.28
2023-03-08T05:56:37.967Z,86.34
2023-03-08T05:59:11.804Z,86.15
2023-03-08T06:01:41.307Z,86.20
2023-03-08T06:04:25.875Z,85.69
2023-03-08T06:06:53.898Z,85.42
2023-03-08T06:09:23.802Z,86.04
2023-03-08T06:11:55.685Z,85.68
2023-03-08T06:14:28.813Z,85.87
2023-03-08T06:16:57.853Z,86.28
2023-03-08T06:19:27.756Z,86.14
2023-03-08T06:21:57.789Z,86.29
2023-03-08T06:24:51.850Z,86.41
2023-03-08T06:27:25.981Z,86.47
2023-03-08T06:30:21.036Z,86.45
2023-03-08T06:32:47.817Z,86.15
2023-03-08T06:35:15.798Z,86.35
2023-03-08T06:37:54.787Z,86.01
2023-03-08T06:40:21.924Z,85.78
2023-03-08T06:43:02.160Z,86.00
2023-03-08T06:45:29.803Z,86.28
2023-03-08T06:48:01.758Z,85.82
2023-03-08T06:50:34.917Z,85.82
2023-03-08T06:53:02.013Z,85.44
2023-03-08T06:55:43.827Z,85.27
2023-03-08T06:58:11.763Z,85.49
2023-03-08T07:01:04.387Z,85.10
2023-03-08T07:03:33.069Z,85.11
2023-03-08T07:06:04.424Z,84.90
2023-03-08T07:08:32.119Z,85.50
2023-03-08T07:11:04.472Z,85.43
2023-03-08T07:13:31.813Z,85.60
2023-03-08T07:15:59.850Z,85.52
2023-03-08T07:18:27.769Z,84.88
2023-03-08T07:20:59.813Z,85.22
2023-03-08T07:23:27.970Z,85.11
2023-03-08T07:26:00.835Z,85.27
2023-03-08T07:28:27.756Z,84.99
2023-03-08T07:30:55.789Z,84.58
2023-03-08T07:33:23.771Z,84.26
2023-03-08T07:35:52.236Z,84.49
2023-03-08T07:38:26.006Z,84.54
2023-03-08T07:41:01.184Z,84.17
2023-03-08T07:43:30.317Z,84.18
2023-03-08T07:46:10.962Z,84.26
2023-03-08T07:48:37.991Z,84.20
2023-03-08T07:51:09.509Z,84.26
2023-03-08T07:53:38.182Z,84.38
2023-03-08T07:56:06.495Z,84.13
2023-03-08T07:58:33.775Z,83.72
2023-03-08T08:01:06.979Z,83.98
2023-03-08T08:03:33.944Z,83.41
2023-03-08T08:06:09.117Z,83.76
2023-03-08T08:08:35.813Z,83.86
2023-03-08T08:11:15.620Z,84.54
2023-03-08T08:13:43.903Z,84.41
2023-03-08T08:19:34.004Z,84.26
2023-03-08T08:22:01.852Z,84.41
2023-03-08T08:24:31.005Z,84.04
2023-03-08T08:26:57.781Z,84.09
2023-03-08T08:29:25.960Z,84.09
2023-03-08T08:31:53.843Z,83.71
2023-03-08T08:34:25.876Z,84.00
2023-03-08T08:36:58.807Z,83.92
2023-03-08T08:39:25.806Z,83.52
2023-03-08T08:41:57.828Z,83.35
2023-03-08T08:44:25.816Z,83.46
2023-03-08T08:46:53.829Z,83.37
2023-03-08T08:49:21.774Z,83.23
2023-03-08T08:51:53.374Z,83.70
2023-03-08T08:57:13.756Z,83.50
2023-03-08T08:59:46.514Z,83.60
2023-03-08T09:02:14.525Z,83.77
2023-03-08T09:04:47.938Z,83.54
2023-03-08T09:07:15.847Z,83.46
2023-03-08T09:09:43.750Z,83.70
2023-03-08T09:12:11.754Z,84.15
2023-03-08T09:14:44.804Z,83.46
2023-03-08T09:17:11.827Z,83.25
2023-03-08T09:22:32.452Z,83.26
2023-03-08T09:25:07.688Z,83.44
2023-03-08T09:27:59.822Z,83.23
2023-03-08T09:30:32.986Z,82.99
2023-03-08T09:32:59.783Z,82.97
2023-03-08T09:35:28.236Z,83.23
2023-03-08T09:37:56.638Z,82.96
2023-03-08T09:40:31.622Z,82.63
2023-03-08T09:43:05.221Z,82.94
2023-03-08T09:45:57.844Z,83.46
2023-03-08T09:48:30.148Z,82.89
2023-03-08T09:51:04.364Z,82.73
2023-03-08T09:53:41.046Z,82.40
2023-03-08T09:56:19.930Z,82.10
2023-03-08T09:58:54.106Z,82.24
2023-03-08T10:01:32.244Z,82.51
2023-03-08T10:04:02.741Z,82.30
2023-03-08T10:06:51.348Z,82.00
2023-03-08T10:09:25.790Z,81.99
2023-03-08T10:15:15.748Z,81.71
2023-03-08T10:17:50.224Z,81.17
2023-03-08T10:20:23.208Z,81.96
2023-03-08T10:23:02.621Z,81.59
2023-03-08T10:28:52.764Z,81.66
2023-03-08T10:31:22.457Z,81.44
2023-03-08T10:34:03.530Z,80.80
2023-03-08T10:36:36.870Z,81.20
2023-03-08T10:39:09.992Z,81.23
2023-03-08T10:41:46.996Z,81.44
2023-03-08T10:44:54.724Z,81.71
2023-03-08T10:47:32.860Z,81.52
2023-03-08T10:50:22.014Z,80.80
2023-03-08T10:56:39.675Z,81.26
2023-03-08T11:06:01.456Z,80.20
2023-03-08T11:08:37.167Z,80.78
2023-03-08T11:11:14.247Z,80.51
2023-03-08T11:13:46.527Z,80.15
2023-03-08T11:16:43.937Z,79.60
2023-03-08T11:19:42.066Z,79.49
2023-03-08T11:22:23.777Z,79.75
2023-03-08T11:25:10.678Z,78.77
2023-03-08T11:27:56.018Z,79.15
2023-03-08T11:30:44.772Z,78.84
2023-03-08T11:34:10.149Z,79.05
2023-03-08T11:37:13.233Z,78.49
2023-03-08T11:43:11.255Z,78.92
2023-03-08T11:46:04.301Z,78.34
2023-03-08T11:49:03.408Z,77.62
2023-03-08T11:51:42.703Z,76.27
2023-03-08T11:54:14.454Z,75.31
2023-03-08T11:56:58.432Z,76.25
2023-03-08T12:00:00.883Z,77.44
2023-03-08T12:02:35.949Z,75.21
2023-03-08T12:05:12.472Z,77.15
2023-03-08T12:08:22.241Z,77.10
2023-03-08T12:11:15.980Z,74.34
2023-03-08T12:13:51.800Z,76.71
2023-03-08T12:16:56.041Z,75.34
2023-03-08T12:19:45.521Z,76.59
2023-03-08T12:22:59.466Z,75.92
2023-03-08T12:25:34.462Z,73.35
2023-03-08T12:40:26.218Z,73.60
2023-03-08T12:43:04.009Z,74.30
2023-03-08T12:45:32.698Z,72.56
2023-03-08T12:48:10.760Z,73.57
2023-03-08T12:51:08.232Z,73.32
2023-03-08T12:53:50.182Z,72.03
2023-03-08T12:56:38.011Z,69.35
2023-03-08T12:59:15.026Z,72.04
2023-03-08T13:01:56.805Z,72.88
2023-03-08T13:04:40.864Z,69.64
2023-03-08T13:07:12.688Z,70.02
2023-03-08T13:09:42.734Z,69.48
2023-03-08T13:12:15.839Z,71.36
2023-03-08T13:14:50.169Z,71.20
2023-03-08T13:17:37.522Z,69.01
2023-03-08T13:20:29.091Z,68.43
2023-03-08T13:23:27.427Z,68.10
2023-03-08T13:26:20.890Z,69.16
2023-03-08T13:29:01.172Z,67.32
2023-03-08T13:31:30.868Z,68.53
2023-03-08T13:33:59.762Z,69.48
2023-03-08T13:36:27.926Z,67.53
2023-03-08T13:38:57.676Z,67.67
2023-03-08T13:41:44.058Z,69.10
2023-03-08T13:44:22.607Z,69.26
2023-03-08T13:47:02.220Z,70.19
2023-03-08T13:49:58.802Z,71.31
2023-03-08T13:52:30.955Z,69.08
2023-03-08T13:55:07.598Z,68.52
2023-03-08T13:57:38.299Z,66.88
2023-03-08T14:00:31.443Z,68.76
2023-03-08T14:03:02.244Z,67.68
2023-03-08T14:05:49.150Z,68.36
2023-03-08T14:08:25.242Z,66.04
2023-03-08T14:11:04.498Z,65.10
2023-03-08T14:27:14.165Z,68.63
2023-03-08T14:29:43.735Z,67.61
2023-03-08T14:32:12.261Z,68.49
2023-03-08T14:35:29.745Z,67.85
2023-03-08T14:38:32.321Z,69.40
2023-03-08T14:41:06.011Z,68.40
2023-03-08T14:43:33.910Z,67.67
2023-03-08T14:46:09.153Z,67.53
2023-03-08T14:51:42.089Z,65.55
2023-03-08T14:54:33.558Z,66.14
2023-03-08T14:57:21.479Z,67.99
2023-03-08T14:59:50.520Z,67.62
2023-03-08T15:02:18.369Z,68.64
2023-03-08T15:04:46.705Z,68.17
2023-03-08T15:07:25.175Z,68.97
2023-03-08T15:09:52.234Z,65.66
2023-03-08T15:12:19.853Z,66.56
2023-03-08T15:14:47.827Z,68.26
2023-03-08T15:17:15.814Z,67.75
2023-03-08T15:19:43.775Z,66.88
2023-03-08T15:22:14.005Z,65.55
2023-03-08T15:24:45.763Z,67.53
2023-03-08T15:27:39.821Z,67.25
2023-03-08T15:30:15.340Z,67.69
2023-03-08T15:32:44.161Z,67.20
2023-03-08T15:35:17.266Z,66.48
2023-03-08T15:37:46.402Z,67.38
2023-03-08T15:40:24.918Z,67.17
2023-03-08T15:42:51.860Z,67.96
2023-03-08T15:45:24.146Z,68.35
2023-03-08T15:48:03.558Z,68.34
2023-03-08T15:50:36.523Z,68.69
2023-03-08T15:53:04.147Z,67.72
2023-03-08T15:55:31.951Z,68.95
2023-03-08T15:57:59.898Z,69.33
2023-03-08T16:00:53.793Z,68.26
2023-03-08T16:03:33.322Z,67.88
2023-03-08T16:06:02.499Z,68.05
2023-03-08T16:08:35.661Z,68.24
2023-03-08T16:11:08.596Z,69.06
2023-03-08T16:13:36.203Z,68.14
2023-03-08T16:16:04.669Z,69.72
2023-03-08T16:18:37.993Z,68.42
2023-03-08T16:21:08.729Z,67.94
2023-03-08T16:23:36.905Z,68.08
2023-03-08T16:26:15.906Z,69.83
2023-03-08T16:29:14.876Z,67.64
2023-03-08T16:31:46.862Z,68.43
2023-03-08T16:34:14.146Z,69.92
2023-03-08T16:36:45.808Z,69.59
2023-03-08T16:39:13.866Z,70.07
2023-03-08T16:42:09.533Z,70.40
2023-03-08T16:45:02.227Z,70.39
2023-03-08T16:47:32.248Z,70.78
2023-03-08T16:50:00.899Z,68.91
2023-03-08T16:52:28.400Z,71.62
2023-03-08T16:54:57.162Z,69.92
2023-03-08T16:57:26.965Z,69.65
2023-03-08T17:00:25.359Z,70.56
2023-03-08T17:03:00.105Z,70.23
2023-03-08T17:05:30.031Z,70.98
2023-03-08T17:07:57.919Z,70.68
2023-03-08T17:10:30.855Z,70.50
2023-03-08T17:12:57.789Z,71.26
2023-03-08T17:15:25.980Z,70.66
2023-03-08T17:18:19.028Z,71.34
2023-03-08T17:20:50.843Z,71.76
2023-03-08T17:23:18.797Z,72.28
2023-03-08T17:25:46.432Z,71.64
2023-03-08T17:28:18.274Z,72.65
2023-03-08T17:30:45.886Z,72.58
2023-03-08T17:33:16.042Z,73.28
2023-03-08T17:36:15.085Z,71.43
2023-03-08T17:38:42.672Z,72.51
2023-03-08T17:41:35.946Z,73.80
2023-03-08T17:44:05.050Z,74.04
2023-03-08T17:46:31.937Z,72.73
2023-03-08T17:49:04.968Z,73.36
2023-03-08T17:51:36.160Z,72.36
2023-03-08T17:54:31.920Z,73.38
2023-03-08T17:57:03.846Z,72.83
2023-03-08T17:59:33.801Z,74.69
2023-03-08T18:04:55.889Z,73.65
2023-03-08T18:07:27.735Z,73.49
2023-03-08T18:09:55.930Z,73.16
2023-03-08T18:12:23.807Z,74.27
2023-03-08T18:14:53.643Z,73.72
2023-03-08T18:17:26.978Z,74.10
2023-03-08T18:19:53.780Z,74.24
2023-03-08T18:22:52.258Z,74.70
2023-03-08T18:25:21.175Z,74.38
2023-03-08T18:27:48.015Z,74.93
2023-03-08T18:30:19.613Z,74.86
2023-03-08T18:32:57.134Z,74.40
2023-03-08T18:38:17.965Z,75.29
2023-03-08T18:40:53.795Z,75.64
2023-03-08T18:43:22.154Z,75.81
2023-03-08T18:45:55.067Z,76.63
2023-03-08T18:48:23.511Z,76.83
2023-03-08T18:51:05.882Z,76.70
2023-03-08T18:53:37.881Z,77.02
2023-03-08T18:56:06.280Z,76.60
2023-03-08T18:58:34.050Z,76.59
2023-03-08T19:01:02.946Z,76.91
2023-03-08T19:03:37.059Z,76.96
2023-03-08T19:06:07.521Z,76.80
2023-03-08T19:08:35.967Z,77.23
2023-03-08T19:11:17.714Z,76.67
2023-03-08T19:13:46.794Z,77.39
2023-03-08T19:16:25.179Z,77.25
2023-03-08T19:18:56.359Z,77.71
2023-03-08T19:21:29.396Z,77.11
2023-03-08T19:23:58.282Z,77.32
2023-03-08T19:29:31.376Z,78.47
2023-03-08T19:32:05.165Z,78.26
2023-03-08T19:34:36.295Z,78.39
2023-03-08T19:37:05.423Z,77.92
2023-03-08T19:39:36.395Z,78.42
2023-03-08T19:42:06.807Z,78.12
2023-03-08T19:45:04.884Z,78.38
2023-03-08T19:47:33.778Z,78.50
2023-03-08T19:50:25.795Z,79.06
2023-03-08T19:56:16.369Z,79.32
2023-03-08T20:01:38.251Z,78.98
2023-03-08T20:04:06.945Z,79.25
2023-03-08T20:06:39.692Z,78.75
2023-03-08T20:09:09.945Z,79.37
2023-03-08T20:11:40.869Z,79.16
2023-03-08T20:14:33.791Z,78.89
2023-03-08T20:17:04.550Z,79.22
2023-03-08T20:19:34.178Z,78.45
2023-03-08T20:22:02.344Z,78.96
2023-03-08T20:24:29.809Z,79.01
2023-03-08T20:26:59.110Z,79.08
2023-03-08T20:29:25.865Z,78.74
2023-03-08T20:31:58.046Z,79.99
2023-03-08T20:34:29.780Z,79.74
2023-03-08T20:37:01.788Z,80.06
2023-03-08T20:39:29.761Z,79.66
2023-03-08T20:42:04.611Z,79.46
2023-03-08T20:44:31.786Z,79.17
2023-03-08T20:46:59.803Z,79.09
2023-03-08T20:49:28.638Z,80.12
2023-03-08T20:54:47.774Z,80.92
2023-03-08T20:57:15.753Z,80.63
2023-03-08T20:59:44.305Z,80.50
2023-03-08T21:02:39.948Z,80.92
2023-03-08T21:08:00.431Z,80.85
2023-03-08T21:10:27.947Z,80.46
2023-03-08T21:13:01.128Z,80.78
2023-03-08T21:15:27.999Z,80.41
2023-03-08T21:17:55.785Z,80.33
2023-03-08T21:20:25.149Z,79.69
2023-03-08T21:23:23.034Z,79.58
2023-03-08T21:25:53.088Z,79.43
2023-03-08T21:28:21.445Z,79.67
2023-03-08T21:30:49.969Z,79.50
2023-03-08T21:33:46.902Z,79.27
2023-03-08T21:36:14.108Z,79.42
2023-03-08T21:38:41.974Z,79.96
2023-03-08T21:41:21.820Z,79.27
2023-03-08T21:43:50.707Z,79.09
2023-03-08T21:46:18.347Z,79.48
2023-03-08T21:51:38.411Z,79.49
2023-03-08T21:54:08.015Z,79.79
2023-03-08T21:56:36.072Z,79.69
2023-03-08T21:59:07.842Z,79.44
2023-03-08T22:01:35.910Z,79.18
2023-03-08T22:04:04.709Z,79.02
2023-03-08T22:06:36.937Z,78.59
2023-03-08T22:09:10.405Z,78.92
2023-03-08T22:11:37.991Z,79.08
2023-03-08T22:14:06.563Z,78.89
2023-03-08T22:16:37.731Z,79.27
2023-03-08T22:19:06.126Z,79.42
2023-03-08T22:21:33.969Z,80.42
2023-03-08T22:24:07.730Z,80.36
2023-03-08T22:26:35.852Z,79.91
2023-03-08T22:29:28.935Z,80.02
2023-03-08T22:31:55.879Z,79.88
2023-03-08T22:34:23.817Z,79.60
2023-03-08T22:36:54.880Z,80.15
2023-03-08T22:39:22.899Z,80.31
2023-03-08T22:41:49.732Z,80.91
2023-03-08T22:44:21.771Z,80.18
2023-03-08T22:46:54.778Z,80.45
2023-03-08T22:49:21.779Z,80.70
2023-03-08T22:51:58.825Z,80.39
2023-03-08T22:54:25.782Z,80.24
2023-03-08T22:56:58.841Z,79.95
2023-03-08T22:59:58.619Z,79.82
2023-03-08T23:02:26.483Z,79.48
2023-03-08T23:04:57.461Z,80.06
2023-03-08T23:07:29.854Z,80.10
2023-03-08T23:09:57.742Z,80.23
2023-03-08T23:12:25.993Z,80.90
2023-03-08T23:14:53.779Z,81.02
2023-03-08T23:17:21.824Z,80.12
2023-03-08T23:19:50.681Z,80.40
2023-03-08T23:22:20.838Z,80.12
2023-03-08T23:24:53.094Z,80.96
2023-03-08T23:27:20.264Z,80.48
2023-03-08T23:29:47.864Z,81.41
2023-03-08T23:32:15.790Z,80.43
2023-03-08T23:34:43.767Z,80.29
2023-03-08T23:37:11.750Z,80.58
2023-03-08T23:39:39.881Z,81.14
2023-03-08T23:42:07.847Z,82.33
2023-03-08T23:44:35.801Z,82.48
2023-03-08T23:47:03.874Z,81.37
2023-03-08T23:49:56.108Z,81.02
2023-03-08T23:52:28.950Z,81.22
2023-03-08T23:55:01.770Z,80.64
2023-03-08T23:57:30.069Z,80.57
